createdAt,value
2023-03-11T08:38:19.918Z,87.24
2023-03-11T08:39:20.122Z,86.59
2023-03-11T08:40:20.148Z,87.66
2023-03-11T08:41:20.102Z,87.66
2023-03-11T08:42:20.101Z,87.54
2023-03-11T08:43:20.071Z,87.75
2023-03-11T08:44:20.111Z,88.27
2023-03-11T08:45:20.060Z,88.79
2023-03-11T08:46:20.141Z,89.41
2023-03-11T08:47:20.037Z,89.10
2023-03-11T08:48:20.047Z,89.62
2023-03-11T08:49:20.051Z,89.14
2023-03-11T08:50:20.028Z,89.83
2023-03-11T08:51:20.017Z,90.56
2023-03-11T08:52:20.035Z,89.48
2023-03-11T08:53:19.993Z,88.96
2023-03-11T08:54:19.995Z,89.10
2023-03-11T08:55:19.978Z,89.62
2023-03-11T08:56:19.954Z,89.31
2023-03-11T08:57:20.908Z,89.83
2023-03-11T08:58:19.961Z,90.04
2023-03-11T08:59:19.927Z,90.04
2023-03-11T09:00:19.933Z,89.37
2023-03-11T09:01:19.939Z,88.85
2023-03-11T09:02:19.908Z,88.64
2023-03-11T09:03:19.859Z,88.85
2023-03-11T09:04:23.972Z,88.79
2023-03-11T09:05:19.863Z,89.17
2023-03-11T09:06:19.909Z,89.10
2023-03-11T09:07:19.906Z,89.00
2023-03-11T09:08:19.861Z,89.52
2023-03-11T09:09:19.809Z,89.73
2023-03-11T09:10:19.819Z,89.41
2023-03-11T09:11:19.820Z,88.58
2023-03-11T09:12:19.788Z,89.00
2023-03-11T09:13:19.822Z,89.20
2023-03-11T09:14:19.796Z,89.41
2023-03-11T09:15:19.803Z,88.85
2023-03-11T09:16:19.913Z,88.48
2023-03-11T09:17:19.730Z,89.14
2023-03-11T09:18:19.745Z,89.45
2023-03-11T09:19:19.735Z,89.14
2023-03-11T09:20:19.737Z,88.83
2023-03-11T09:21:19.695Z,88.89
2023-03-11T09:22:19.748Z,88.52
2023-03-11T09:23:19.676Z,88.62
2023-03-11T09:24:19.716Z,88.83
2023-03-11T09:25:19.749Z,89.04
2023-03-11T09:26:19.658Z,88.89
2023-03-11T09:27:19.670Z,89.00
2023-03-11T09:28:19.644Z,89.41
2023-03-11T09:29:19.639Z,89.20
2023-03-11T09:30:19.641Z,89.41
2023-03-11T09:31:19.689Z,89.41
2023-03-11T09:32:19.648Z,89.52
2023-03-11T09:33:19.632Z,89.25
2023-03-11T09:34:19.595Z,89.73
2023-03-11T09:35:19.576Z,89.94
2023-03-11T09:36:19.593Z,89.31
2023-03-11T09:37:19.558Z,89.62
2023-03-11T09:38:19.528Z,89.94
2023-03-11T09:39:19.604Z,90.04
2023-03-11T09:40:19.523Z,89.73
2023-03-11T09:41:19.496Z,89.98
2023-03-11T09:42:19.491Z,90.87
2023-03-11T09:43:19.508Z,90.56
2023-03-11T09:44:19.473Z,90.56
2023-03-11T09:45:19.481Z,90.41
2023-03-11T09:46:19.483Z,90.04
2023-03-11T09:47:19.472Z,90.04
2023-03-11T09:48:21.817Z,90.20
2023-03-11T09:49:20.737Z,90.04
2023-03-11T09:50:19.412Z,90.14
2023-03-11T09:51:19.384Z,90.25
2023-03-11T09:52:19.496Z,90.45
2023-03-11T09:53:20.204Z,90.04
2023-03-11T09:54:19.909Z,90.77
2023-03-11T09:55:19.406Z,90.97
2023-03-11T09:56:19.355Z,90.97
2023-03-11T09:57:19.338Z,91.14
2023-03-11T09:58:19.528Z,89.94
2023-03-11T09:59:19.335Z,90.35
2023-03-11T10:00:19.319Z,90.10
2023-03-11T10:01:19.395Z,89.85
2023-03-11T10:02:19.491Z,89.54
2023-03-11T10:03:19.336Z,89.64
2023-03-11T10:04:19.305Z,90.26
2023-03-11T10:05:19.607Z,89.06
2023-03-11T10:06:19.255Z,89.89
2023-03-11T10:07:19.273Z,89.89
2023-03-11T10:08:19.260Z,89.48
2023-03-11T10:09:19.269Z,89.58
2023-03-11T10:10:19.209Z,89.48
2023-03-11T10:11:19.210Z,90.00
2023-03-11T10:12:19.218Z,90.10
2023-03-11T10:13:19.188Z,89.31
2023-03-11T10:14:19.214Z,89.89
2023-03-11T10:15:20.201Z,89.58
2023-03-11T10:16:19.270Z,89.79
2023-03-11T10:17:19.160Z,89.69
2023-03-11T10:18:19.156Z,89.85
2023-03-11T10:19:19.117Z,89.64
2023-03-11T10:20:20.153Z,88.92
2023-03-11T10:21:19.092Z,88.50
2023-03-11T10:22:19.095Z,88.67
2023-03-11T10:23:19.137Z,88.52
2023-03-11T10:24:19.108Z,88.15
2023-03-11T10:25:19.147Z,87.88
2023-03-11T10:26:19.155Z,88.50
2023-03-11T10:27:19.064Z,88.77
2023-03-11T10:28:19.081Z,88.25
2023-03-11T10:29:19.044Z,88.56
2023-03-11T10:30:19.161Z,87.94
2023-03-11T10:31:19.173Z,87.77
2023-03-11T10:32:19.031Z,88.71
2023-03-11T10:33:18.997Z,89.54
2023-03-11T10:34:18.969Z,90.06
2023-03-11T10:35:18.951Z,89.23
2023-03-11T10:36:18.959Z,89.23
2023-03-11T10:37:18.936Z,89.75
2023-03-11T10:38:18.966Z,89.23
2023-03-11T10:39:18.911Z,89.43
2023-03-11T10:40:18.903Z,89.43
2023-03-11T10:41:18.902Z,89.95
2023-03-11T10:42:18.914Z,90.47
2023-03-11T10:43:18.906Z,89.12
2023-03-11T10:44:18.893Z,89.48
2023-03-11T10:45:18.864Z,90.20
2023-03-11T10:46:19.032Z,90.06
2023-03-11T10:47:18.861Z,89.85
2023-03-11T10:48:18.861Z,88.19
2023-03-11T10:49:18.885Z,87.88
2023-03-11T10:50:18.803Z,88.50
2023-03-11T10:51:18.798Z,88.77
2023-03-11T10:52:18.803Z,86.52
2023-03-11T10:53:19.815Z,87.88
2023-03-11T10:54:18.801Z,86.73
2023-03-11T10:55:18.799Z,86.83
2023-03-11T10:56:18.780Z,87.25
2023-03-11T10:57:18.745Z,87.66
2023-03-11T10:58:18.745Z,87.63
2023-03-11T10:59:18.750Z,87.42
2023-03-11T11:00:18.841Z,87.21
2023-03-11T11:01:18.840Z,86.73
2023-03-11T11:02:18.683Z,87.04
2023-03-11T11:03:18.685Z,87.40
2023-03-11T11:04:18.713Z,88.02
2023-03-11T11:05:18.699Z,88.43
2023-03-11T11:06:18.677Z,88.71
2023-03-11T11:07:18.631Z,88.29
2023-03-11T11:08:18.655Z,87.84
2023-03-11T11:09:18.643Z,86.90
2023-03-11T11:10:18.730Z,86.80
2023-03-11T11:11:18.634Z,86.17
2023-03-11T11:12:18.585Z,86.49
2023-03-11T11:13:18.587Z,86.17
2023-03-11T11:14:18.604Z,85.55
2023-03-11T11:15:18.553Z,86.27
2023-03-11T11:16:18.690Z,86.55
2023-03-11T11:17:18.543Z,86.38
2023-03-11T11:18:18.570Z,86.80
2023-03-11T11:19:18.800Z,86.38
2023-03-11T11:20:18.580Z,85.34
2023-03-11T11:21:18.526Z,85.38
2023-03-11T11:22:18.517Z,85.69
2023-03-11T11:23:18.500Z,86.00
2023-03-11T11:24:18.606Z,86.32
2023-03-11T11:25:18.748Z,86.21
2023-03-11T11:26:18.488Z,85.90
2023-03-11T11:27:18.453Z,86.94
2023-03-11T11:28:18.448Z,87.11
2023-03-11T11:29:18.431Z,86.69
2023-03-11T11:30:18.470Z,86.38
2023-03-11T11:31:18.542Z,86.49
2023-03-11T11:32:18.480Z,85.65
2023-03-11T11:33:18.407Z,85.75
2023-03-11T11:34:18.557Z,85.44
2023-03-11T11:35:18.471Z,86.13
2023-03-11T11:36:18.368Z,84.78
2023-03-11T11:37:18.368Z,84.72
2023-03-11T11:38:18.357Z,84.82
2023-03-11T11:39:18.360Z,85.24
2023-03-11T11:40:18.430Z,85.24
2023-03-11T11:41:18.352Z,85.13
2023-03-11T11:42:18.314Z,85.51
2023-03-11T11:43:18.317Z,84.89
2023-03-11T11:44:18.303Z,84.78
2023-03-11T11:45:18.262Z,85.10
2023-03-11T11:46:18.377Z,84.37
2023-03-11T11:47:18.267Z,84.37
2023-03-11T11:48:18.284Z,84.33
2023-03-11T11:49:18.228Z,84.22
2023-03-11T11:50:18.283Z,83.64
2023-03-11T11:51:18.237Z,83.64
2023-03-11T11:52:18.211Z,84.16
2023-03-11T11:53:18.177Z,84.41
2023-03-11T11:54:18.211Z,84.51
2023-03-11T11:55:18.177Z,85.44
2023-03-11T11:56:18.159Z,85.86
2023-03-11T11:57:18.149Z,85.96
2023-03-11T11:58:18.198Z,85.44
2023-03-11T11:59:18.197Z,85.82
2023-03-11T12:00:18.166Z,85.82
2023-03-11T12:01:18.118Z,85.51
2023-03-11T12:02:18.813Z,85.51
2023-03-11T12:03:20.244Z,85.82
2023-03-11T12:04:18.074Z,85.44
2023-03-11T12:05:18.171Z,85.24
2023-03-11T12:06:18.057Z,85.41
2023-03-11T12:07:18.094Z,84.92
2023-03-11T12:08:18.077Z,85.10
2023-03-11T12:09:18.021Z,84.37
2023-03-11T12:10:23.374Z,83.74
2023-03-11T12:11:19.034Z,83.53
2023-03-11T12:12:18.023Z,83.01
2023-03-11T12:13:17.987Z,82.91
2023-03-11T12:14:17.972Z,83.12
2023-03-11T12:15:17.958Z,82.50
2023-03-11T12:16:18.037Z,82.04
2023-03-11T12:17:17.987Z,81.94
2023-03-11T12:18:17.999Z,82.15
2023-03-11T12:19:17.930Z,82.87
2023-03-11T12:20:18.006Z,83.01
2023-03-11T12:21:17.934Z,82.91
2023-03-11T12:22:17.902Z,83.22
2023-03-11T12:23:17.898Z,83.12
2023-03-11T12:24:17.985Z,82.50
2023-03-11T12:25:17.862Z,82.18
2023-03-11T12:26:17.881Z,82.91
2023-03-11T12:27:17.838Z,83.22
2023-03-11T12:28:17.886Z,82.25
2023-03-11T12:29:17.882Z,81.35
2023-03-11T12:30:17.870Z,81.15
2023-03-11T12:31:17.858Z,81.04
2023-03-11T12:32:17.823Z,81.21
2023-03-11T12:33:17.774Z,81.42
2023-03-11T12:34:17.778Z,81.77
2023-03-11T12:35:17.815Z,82.46
2023-03-11T12:36:17.760Z,82.04
2023-03-11T12:37:17.788Z,82.08
2023-03-11T12:38:17.752Z,82.81
2023-03-11T12:39:17.716Z,82.50
2023-03-11T12:40:17.737Z,82.12
2023-03-11T12:41:18.925Z,82.84
2023-03-11T12:42:17.703Z,83.16
2023-03-11T12:43:17.691Z,83.47
2023-03-11T12:44:17.683Z,83.47
2023-03-11T12:45:17.694Z,83.16
2023-03-11T12:46:17.728Z,82.64
2023-03-11T12:47:17.660Z,82.84
2023-03-11T12:48:17.669Z,82.84
2023-03-11T12:49:17.657Z,82.84
2023-03-11T12:50:17.692Z,83.01
2023-03-11T12:51:17.600Z,82.70
2023-03-11T12:52:17.602Z,82.35
2023-03-11T12:53:17.610Z,82.04
2023-03-11T12:54:17.600Z,81.84
2023-03-11T12:55:17.573Z,81.28
2023-03-11T12:56:17.564Z,81.21
2023-03-11T12:57:17.606Z,80.69
2023-03-11T12:58:17.558Z,79.69
2023-03-11T12:59:17.538Z,80.00
2023-03-11T13:00:17.836Z,80.52
2023-03-11T13:01:17.582Z,80.32
2023-03-11T13:02:17.507Z,80.49
2023-03-11T13:03:17.599Z,80.49
2023-03-11T13:04:17.473Z,80.38
2023-03-11T13:05:17.501Z,80.80
2023-03-11T13:06:17.476Z,80.49
2023-03-11T13:07:17.495Z,80.18
2023-03-11T13:08:17.454Z,80.11
2023-03-11T13:09:17.437Z,80.66
2023-03-11T13:10:17.467Z,81.39
2023-03-11T13:11:17.434Z,81.49
2023-03-11T13:12:17.407Z,81.29
2023-03-11T13:13:17.402Z,81.29
2023-03-11T13:14:17.395Z,81.56
2023-03-11T13:15:17.396Z,81.21
2023-03-11T13:16:17.445Z,80.69
2023-03-11T13:17:17.386Z,80.94
2023-03-11T13:18:17.349Z,80.69
2023-03-11T13:19:17.393Z,81.21
2023-03-11T13:20:17.331Z,80.90
2023-03-11T13:21:17.346Z,81.11
2023-03-11T13:22:17.304Z,80.49
2023-03-11T13:23:17.291Z,79.97
2023-03-11T13:24:17.287Z,79.76
2023-03-11T13:25:17.308Z,79.69
2023-03-11T13:26:17.272Z,80.21
2023-03-11T13:27:17.257Z,79.97
2023-03-11T13:28:17.278Z,80.07
2023-03-11T13:29:17.252Z,79.24
2023-03-11T13:30:17.296Z,78.65
2023-03-11T13:31:17.286Z,79.94
2023-03-11T13:32:17.307Z,80.42
2023-03-11T13:33:17.207Z,79.69
2023-03-11T13:34:17.212Z,79.90
2023-03-11T13:35:17.215Z,79.90
2023-03-11T13:36:17.166Z,80.32
2023-03-11T13:37:17.259Z,80.18
2023-03-11T13:38:17.144Z,79.97
2023-03-11T13:39:17.157Z,80.28
2023-03-11T13:40:17.154Z,79.65
2023-03-11T13:41:17.141Z,79.27
2023-03-11T13:42:17.113Z,79.17
2023-03-11T13:43:17.091Z,78.75
2023-03-11T13:44:17.088Z,78.65
2023-03-11T13:45:17.119Z,79.00
2023-03-11T13:46:17.122Z,79.10
2023-03-11T13:47:17.073Z,79.21
2023-03-11T13:48:17.066Z,79.31
2023-03-11T13:49:17.041Z,79.41
2023-03-11T13:50:17.061Z,79.72
2023-03-11T13:51:17.039Z,79.83
2023-03-11T13:52:17.026Z,79.62
2023-03-11T13:53:17.031Z,79.21
2023-03-11T13:54:16.972Z,79.21
2023-03-11T13:55:17.015Z,78.48
2023-03-11T13:56:17.015Z,78.38
2023-03-11T13:57:16.949Z,78.06
2023-03-11T13:58:16.944Z,77.96
2023-03-11T13:59:16.950Z,78.03
2023-03-11T14:00:16.940Z,78.13
2023-03-11T14:01:16.963Z,78.30
2023-03-11T14:02:16.910Z,78.13
2023-03-11T14:03:16.902Z,78.34
2023-03-11T14:04:16.926Z,78.55
2023-03-11T14:05:16.914Z,78.86
2023-03-11T14:06:19.289Z,78.55
2023-03-11T14:07:16.908Z,78.75
2023-03-11T14:08:16.873Z,78.75
2023-03-11T14:09:16.856Z,78.41
2023-03-11T14:10:16.899Z,78.65
2023-03-11T14:11:16.827Z,79.06
2023-03-11T14:12:18.990Z,79.06
2023-03-11T14:13:16.819Z,79.17
2023-03-11T14:14:16.809Z,79.17
2023-03-11T14:15:16.818Z,79.06
2023-03-11T14:16:16.849Z,79.06
2023-03-11T14:17:16.759Z,79.31
2023-03-11T14:18:16.729Z,79.58
2023-03-11T14:19:16.757Z,79.31
2023-03-11T14:20:16.888Z,79.72
2023-03-11T14:21:16.778Z,80.35
2023-03-11T14:22:16.698Z,79.72
2023-03-11T14:23:16.690Z,78.83
2023-03-11T14:24:16.696Z,79.35
2023-03-11T14:25:16.680Z,79.14
2023-03-11T14:26:16.671Z,79.87
2023-03-11T14:27:16.653Z,79.83
2023-03-11T14:28:16.640Z,79.10
2023-03-11T14:29:16.642Z,78.89
2023-03-11T14:30:16.619Z,78.06
2023-03-11T14:31:16.669Z,78.23
2023-03-11T14:32:16.727Z,77.72
2023-03-11T14:33:16.590Z,78.09
2023-03-11T14:34:16.599Z,77.78
2023-03-11T14:35:16.585Z,76.54
2023-03-11T14:36:16.682Z,76.33
2023-03-11T14:37:16.605Z,76.23
2023-03-11T14:38:16.528Z,76.02
2023-03-11T14:39:16.540Z,74.67
2023-03-11T14:40:16.525Z,75.26
2023-03-11T14:41:16.519Z,76.29
2023-03-11T14:42:16.537Z,77.16
2023-03-11T14:43:16.512Z,77.16
2023-03-11T14:44:16.479Z,77.06
2023-03-11T14:45:16.603Z,77.03
2023-03-11T14:46:16.507Z,76.61
2023-03-11T14:47:16.470Z,76.78
2023-03-11T14:48:16.433Z,76.92
2023-03-11T14:49:16.456Z,77.03
2023-03-11T14:50:16.419Z,77.34
2023-03-11T14:51:16.429Z,77.65
2023-03-11T14:52:16.428Z,77.44
2023-03-11T14:53:16.395Z,76.75
2023-03-11T14:54:16.496Z,76.23
2023-03-11T14:55:16.417Z,76.54
2023-03-11T14:56:16.389Z,76.33
2023-03-11T14:57:16.393Z,76.09
2023-03-11T14:58:16.367Z,75.81
2023-03-11T14:59:16.344Z,75.92
2023-03-11T15:00:16.361Z,75.88
2023-03-11T15:01:16.385Z,75.88
2023-03-11T15:02:16.322Z,75.98
2023-03-11T15:03:16.310Z,76.19
2023-03-11T15:04:16.347Z,75.88
2023-03-11T15:05:16.312Z,75.74
2023-03-11T15:06:16.252Z,75.32
2023-03-11T15:07:16.254Z,74.91
2023-03-11T15:08:16.955Z,74.29
2023-03-11T15:09:16.246Z,74.49
2023-03-11T15:10:16.564Z,73.77
2023-03-11T15:11:17.092Z,73.46
2023-03-11T15:12:16.202Z,73.14
2023-03-11T15:13:16.250Z,72.38
2023-03-11T15:14:16.208Z,71.45
2023-03-11T15:15:16.196Z,71.34
2023-03-11T15:16:16.203Z,71.34
2023-03-11T15:17:33.100Z,71.86
2023-03-11T15:18:17.164Z,72.07
2023-03-11T15:19:16.172Z,71.86
2023-03-11T15:20:16.126Z,72.07
2023-03-11T15:21:16.119Z,72.52
2023-03-11T15:22:16.115Z,73.56
2023-03-11T15:23:16.184Z,73.53
2023-03-11T15:24:16.086Z,71.97
2023-03-11T15:25:16.085Z,71.03
2023-03-11T15:26:16.070Z,71.14
2023-03-11T15:27:16.097Z,71.24
2023-03-11T15:28:16.089Z,71.14
2023-03-11T15:29:17.925Z,70.31
2023-03-11T15:30:16.090Z,70.00
2023-03-11T15:31:16.191Z,69.89
2023-03-11T15:32:16.060Z,69.89
2023-03-11T15:33:16.106Z,70.00
2023-03-11T15:34:16.315Z,69.40
2023-03-11T15:35:16.128Z,69.79
2023-03-11T15:36:15.974Z,69.61
2023-03-11T15:37:16.005Z,70.03
2023-03-11T15:38:15.993Z,70.03
2023-03-11T15:39:15.991Z,70.79
2023-03-11T15:40:15.941Z,71.38
2023-03-11T15:41:15.926Z,71.38
2023-03-11T15:42:15.943Z,71.59
2023-03-11T15:43:15.892Z,71.90
2023-03-11T15:44:15.914Z,72.11
2023-03-11T15:45:15.890Z,72.31
2023-03-11T15:46:16.039Z,72.63
2023-03-11T15:47:15.873Z,72.45
2023-03-11T15:48:15.870Z,72.97
2023-03-11T15:49:15.846Z,72.94
2023-03-11T15:50:24.054Z,73.04
2023-03-11T15:51:16.856Z,73.25
2023-03-11T15:52:15.801Z,73.35
2023-03-11T15:53:15.814Z,73.46
2023-03-11T15:54:15.775Z,73.25
2023-03-11T15:55:15.799Z,73.04
2023-03-11T15:56:15.796Z,72.63
2023-03-11T15:57:15.760Z,73.04
2023-03-11T15:58:15.763Z,73.14
2023-03-11T15:59:15.729Z,73.46
2023-03-11T16:00:15.742Z,73.04
2023-03-11T16:01:15.734Z,72.83
2023-03-11T16:02:15.723Z,72.94
2023-03-11T16:03:15.727Z,73.14
2023-03-11T16:04:15.871Z,73.25
2023-03-11T16:05:15.739Z,73.14
2023-03-11T16:06:15.855Z,73.35
2023-03-11T16:07:17.102Z,72.83
2023-03-11T16:08:15.680Z,72.94
2023-03-11T16:09:15.632Z,73.25
2023-03-11T16:10:15.682Z,73.25
2023-03-11T16:11:15.672Z,73.46
2023-03-11T16:12:15.650Z,73.35
2023-03-11T16:13:15.605Z,73.46
2023-03-11T16:14:15.576Z,73.77
2023-03-11T16:15:15.571Z,74.08
2023-03-11T16:16:15.655Z,74.29
2023-03-11T16:17:15.575Z,73.66
2023-03-11T16:18:15.543Z,73.35
2023-03-11T16:19:15.542Z,72.21
2023-03-11T16:20:15.539Z,71.07
2023-03-11T16:21:15.618Z,70.68
2023-03-11T16:22:15.497Z,70.37
2023-03-11T16:23:15.494Z,70.17
2023-03-11T16:24:15.499Z,70.68
2023-03-11T16:25:15.461Z,70.58
2023-03-11T16:26:17.102Z,70.58
2023-03-11T16:27:15.453Z,70.37
2023-03-11T16:28:15.435Z,70.27
2023-03-11T16:29:19.326Z,70.37
2023-03-11T16:30:15.438Z,70.68
2023-03-11T16:31:15.443Z,70.27
2023-03-11T16:32:15.457Z,70.17
2023-03-11T16:33:15.395Z,70.06
2023-03-11T16:34:15.369Z,70.06
2023-03-11T16:35:15.358Z,70.06
2023-03-11T16:36:15.376Z,70.17
2023-03-11T16:37:15.365Z,70.17
2023-03-11T16:38:15.340Z,70.68
2023-03-11T16:39:15.371Z,70.89
2023-03-11T16:40:15.359Z,71.00
2023-03-11T16:41:15.364Z,70.89
2023-03-11T16:42:15.296Z,70.68
2023-03-11T16:43:15.305Z,71.00
2023-03-11T16:44:15.307Z,71.00
2023-03-11T16:45:15.282Z,71.31
2023-03-11T16:46:15.294Z,71.31
2023-03-11T16:47:15.280Z,71.51
2023-03-11T16:48:15.287Z,71.62
2023-03-11T16:49:15.262Z,71.93
2023-03-11T16:50:15.206Z,71.62
2023-03-11T16:51:15.226Z,71.93
2023-03-11T16:52:15.502Z,71.83
2023-03-11T16:53:15.207Z,71.83
2023-03-11T16:54:15.219Z,71.93
2023-03-11T16:55:15.165Z,72.03
2023-03-11T16:56:15.159Z,72.14
2023-03-11T16:57:15.188Z,72.45
2023-03-11T16:58:15.177Z,72.86
2023-03-11T16:59:15.153Z,72.86
2023-03-11T17:00:15.129Z,72.66
2023-03-11T17:01:15.117Z,72.55
2023-03-11T17:02:15.160Z,72.76
2023-03-11T17:03:15.099Z,72.76
2023-03-11T17:04:15.083Z,73.11
2023-03-11T17:05:15.125Z,73.00
2023-03-11T17:06:15.074Z,72.90
2023-03-11T17:07:15.450Z,72.69
2023-03-11T17:08:15.040Z,72.97
2023-03-11T17:09:15.050Z,73.00
2023-03-11T17:10:15.041Z,73.07
2023-03-11T17:11:15.038Z,73.83
2023-03-11T17:12:15.031Z,73.83
2023-03-11T17:13:17.751Z,73.63
2023-03-11T17:14:16.801Z,73.73
2023-03-11T17:15:14.992Z,74.04
2023-03-11T17:16:14.990Z,73.94
2023-03-11T17:17:14.967Z,73.83
2023-03-11T17:18:14.987Z,74.15
2023-03-11T17:19:14.932Z,74.35
2023-03-11T17:20:14.934Z,74.25
2023-03-11T17:21:14.952Z,74.15
2023-03-11T17:22:14.969Z,74.25
2023-03-11T17:23:14.911Z,74.57
2023-03-11T17:24:14.904Z,74.67
2023-03-11T17:25:14.887Z,74.67
2023-03-11T17:26:14.886Z,74.98
2023-03-11T17:27:15.623Z,75.19
2023-03-11T17:28:14.876Z,75.19
2023-03-11T17:29:14.862Z,75.29
2023-03-11T17:30:19.425Z,75.40
2023-03-11T17:31:15.869Z,75.71
2023-03-11T17:32:17.087Z,75.92
2023-03-11T17:33:14.833Z,76.02
2023-03-11T17:34:14.817Z,75.92
2023-03-11T17:35:14.786Z,76.12
2023-03-11T17:36:15.440Z,76.43
2023-03-11T17:37:14.812Z,76.33
2023-03-11T17:38:16.507Z,76.12
2023-03-11T17:39:14.776Z,76.23
2023-03-11T17:40:14.784Z,76.12
2023-03-11T17:41:14.765Z,76.47
2023-03-11T17:42:15.115Z,76.57
2023-03-11T17:43:14.769Z,76.78
2023-03-11T17:44:14.750Z,76.78
2023-03-11T17:45:14.738Z,76.78
2023-03-11T17:46:14.836Z,76.89
2023-03-11T17:47:14.700Z,76.99
2023-03-11T17:48:14.733Z,77.27
2023-03-11T17:49:14.681Z,77.51
2023-03-11T17:50:14.692Z,77.72
2023-03-11T17:51:14.666Z,77.72
2023-03-11T17:52:14.655Z,78.03
2023-03-11T17:53:14.674Z,78.03
2023-03-11T17:54:14.647Z,78.24
2023-03-11T17:55:14.622Z,78.24
2023-03-11T17:56:14.619Z,78.45
2023-03-11T17:57:14.617Z,78.55
2023-03-11T17:58:14.624Z,78.76
2023-03-11T17:59:16.512Z,78.97
2023-03-11T18:00:14.517Z,79.07
2023-03-11T18:01:14.558Z,79.07
2023-03-11T18:02:14.638Z,79.07
2023-03-11T18:03:14.554Z,78.97
2023-03-11T18:04:14.785Z,79.28
2023-03-11T18:05:15.671Z,79.07
2023-03-11T18:06:14.553Z,79.28
2023-03-11T18:07:14.509Z,79.59
2023-03-11T18:08:14.500Z,80.01
2023-03-11T18:09:14.488Z,79.91
2023-03-11T18:10:14.519Z,79.80
2023-03-11T18:11:15.917Z,79.91
2023-03-11T18:12:14.491Z,80.11
2023-03-11T18:13:14.448Z,79.80
2023-03-11T18:14:14.445Z,79.91
2023-03-11T18:15:14.476Z,80.32
2023-03-11T18:16:14.488Z,80.53
2023-03-11T18:17:14.970Z,80.84
2023-03-11T18:18:14.494Z,80.43
2023-03-11T18:19:14.368Z,80.74
2023-03-11T18:20:14.423Z,80.94
2023-03-11T18:21:14.383Z,80.84
2023-03-11T18:22:14.364Z,80.88
2023-03-11T18:23:14.382Z,81.19
2023-03-11T18:24:14.351Z,81.19
2023-03-11T18:25:14.326Z,81.19
2023-03-11T18:26:14.314Z,81.29
2023-03-11T18:27:14.307Z,81.29
2023-03-11T18:28:14.307Z,81.09
2023-03-11T18:29:14.282Z,81.19
2023-03-11T18:30:14.320Z,81.19
2023-03-11T18:31:14.348Z,81.19
2023-03-11T18:32:14.316Z,81.19
2023-03-11T18:33:14.742Z,80.88
2023-03-11T18:34:14.262Z,80.98
2023-03-11T18:35:14.305Z,81.19
2023-03-11T18:36:14.264Z,81.09
2023-03-11T18:37:15.164Z,80.98
2023-03-11T18:38:14.189Z,81.09
2023-03-11T18:39:14.208Z,81.09
2023-03-11T18:40:15.136Z,81.09
2023-03-11T18:41:14.185Z,81.19
2023-03-11T18:42:14.284Z,81.29
2023-03-11T18:43:14.191Z,81.19
2023-03-11T18:44:14.185Z,81.29
2023-03-11T18:45:14.124Z,81.50
2023-03-11T18:46:14.259Z,81.81
2023-03-11T18:47:14.107Z,81.60
2023-03-11T18:48:14.232Z,81.71
2023-03-11T18:49:14.119Z,81.71
2023-03-11T18:50:14.075Z,81.92
2023-03-11T18:51:14.135Z,81.60
2023-03-11T18:52:14.356Z,81.40
2023-03-11T18:53:14.067Z,81.40
2023-03-11T18:54:14.054Z,81.60
2023-03-11T18:55:15.236Z,81.50
2023-03-11T18:56:14.040Z,81.40
2023-03-11T18:57:13.999Z,81.40
2023-03-11T18:58:14.012Z,81.60
2023-03-11T18:59:14.034Z,81.40
2023-03-11T19:00:14.028Z,81.40
2023-03-11T19:01:14.098Z,81.60
2023-03-11T19:02:13.981Z,81.96
2023-03-11T19:03:13.951Z,81.71
2023-03-11T19:04:13.946Z,82.03
2023-03-11T19:05:14.097Z,81.85
2023-03-11T19:06:13.930Z,81.85
2023-03-11T19:07:13.941Z,82.06
2023-03-11T19:08:13.925Z,82.17
2023-03-11T19:09:13.893Z,82.17
2023-03-11T19:10:13.935Z,82.48
2023-03-11T19:11:13.899Z,82.37
2023-03-11T19:12:13.856Z,82.27
2023-03-11T19:13:13.875Z,82.17
2023-03-11T19:14:13.878Z,82.37
2023-03-11T19:15:13.838Z,82.37
2023-03-11T19:16:13.825Z,82.37
2023-03-11T19:17:13.838Z,82.27
2023-03-11T19:18:14.629Z,82.48
2023-03-11T19:19:13.816Z,82.48
2023-03-11T19:20:13.841Z,82.37
2023-03-11T19:21:13.770Z,82.48
2023-03-11T19:22:13.780Z,82.68
2023-03-11T19:23:13.772Z,82.58
2023-03-11T19:24:13.793Z,82.48
2023-03-11T19:25:13.728Z,82.37
2023-03-11T19:26:13.730Z,82.48
2023-03-11T19:27:13.713Z,82.48
2023-03-11T19:28:13.743Z,82.58
2023-03-11T19:29:13.792Z,82.48
2023-03-11T19:30:13.699Z,82.48
2023-03-11T19:31:13.682Z,82.48
2023-03-11T19:32:13.732Z,82.68
2023-03-11T19:33:13.673Z,82.89
2023-03-11T19:34:13.651Z,83.10
2023-03-11T19:35:13.658Z,83.00
2023-03-11T19:36:13.667Z,83.00
2023-03-11T19:37:13.636Z,83.10
2023-03-11T19:38:13.749Z,82.68
2023-03-11T19:39:13.599Z,82.68
2023-03-11T19:40:13.581Z,82.89
2023-03-11T19:41:13.588Z,83.00
2023-03-11T19:42:13.626Z,82.79
2023-03-11T19:43:13.550Z,83.00
2023-03-11T19:44:13.660Z,82.68
2023-03-11T19:45:13.570Z,82.58
2023-03-11T19:46:13.586Z,82.48
2023-03-11T19:47:13.516Z,82.58
2023-03-11T19:48:13.539Z,82.68
2023-03-11T19:49:13.518Z,83.00
2023-03-11T19:50:13.526Z,83.10
2023-03-11T19:51:13.494Z,83.20
2023-03-11T19:52:13.509Z,82.89
2023-03-11T19:53:13.454Z,82.79
2023-03-11T19:54:13.500Z,82.68
2023-03-11T19:55:13.425Z,82.89
2023-03-11T19:56:13.500Z,83.00
2023-03-11T19:57:13.415Z,83.10
2023-03-11T19:58:13.398Z,83.00
2023-03-11T19:59:13.417Z,82.89
2023-03-11T20:00:13.384Z,82.79
2023-03-11T20:01:13.373Z,82.89
2023-03-11T20:02:13.438Z,83.00
2023-03-11T20:03:13.366Z,82.89
2023-03-11T20:04:13.371Z,83.10
2023-03-11T20:05:13.444Z,83.20
2023-03-11T20:06:13.406Z,83.31
2023-03-11T20:07:13.365Z,83.10
2023-03-11T20:08:13.332Z,82.89
2023-03-11T20:09:13.358Z,82.89
2023-03-11T20:10:13.518Z,82.89
2023-03-11T20:11:13.286Z,82.68
2023-03-11T20:12:13.263Z,82.89
2023-03-11T20:13:13.315Z,82.79
2023-03-11T20:14:13.278Z,82.68
2023-03-11T20:15:13.258Z,82.68
2023-03-11T20:16:13.322Z,82.79
2023-03-11T20:17:13.256Z,82.79
2023-03-11T20:18:13.210Z,83.00
2023-03-11T20:19:13.285Z,82.89
2023-03-11T20:20:13.222Z,82.79
2023-03-11T20:21:13.221Z,82.89
2023-03-11T20:22:13.235Z,82.89
2023-03-11T20:23:13.213Z,82.89
2023-03-11T20:24:13.198Z,83.10
2023-03-11T20:25:13.172Z,82.89
2023-03-11T20:26:13.201Z,82.68
2023-03-11T20:27:13.175Z,82.68
2023-03-11T20:28:13.176Z,82.68
2023-03-11T20:29:13.121Z,82.58
2023-03-11T20:30:13.104Z,82.68
2023-03-11T20:31:13.169Z,82.68
2023-03-11T20:32:13.207Z,82.58
2023-03-11T20:33:13.100Z,82.79
2023-03-11T20:34:13.085Z,82.58
2023-03-11T20:35:13.058Z,82.68
2023-03-11T20:36:13.136Z,82.58
2023-03-11T20:37:13.023Z,82.58
2023-03-11T20:38:13.143Z,82.27
2023-03-11T20:39:13.026Z,82.37
2023-03-11T20:40:13.071Z,82.48
2023-03-11T20:41:13.025Z,82.48
2023-03-11T20:42:13.114Z,82.27
2023-03-11T20:43:12.972Z,82.17
2023-03-11T20:44:13.062Z,82.27
2023-03-11T20:45:12.981Z,82.27
2023-03-11T20:46:13.124Z,82.37
2023-03-11T20:47:13.025Z,82.48
2023-03-11T20:48:12.968Z,82.27
2023-03-11T20:49:12.983Z,82.27
2023-03-11T20:50:12.984Z,82.37
2023-03-11T20:51:12.906Z,82.17
2023-03-11T20:52:12.899Z,82.06
2023-03-11T20:53:12.858Z,81.65
2023-03-11T20:54:12.916Z,81.75
2023-03-11T20:55:13.017Z,81.33
2023-03-11T20:56:12.953Z,81.02
2023-03-11T20:57:12.858Z,80.91
2023-03-11T20:58:12.865Z,80.50
2023-03-11T20:59:12.896Z,80.40
2023-03-11T21:00:12.789Z,80.29
2023-03-11T21:01:12.828Z,80.29
2023-03-11T21:02:12.849Z,80.40
2023-03-11T21:03:12.861Z,80.29
2023-03-11T21:04:15.122Z,80.29
2023-03-11T21:05:12.819Z,80.40
2023-03-11T21:06:12.740Z,80.40
2023-03-11T21:07:12.774Z,80.50
2023-03-11T21:08:12.817Z,80.71
2023-03-11T21:09:12.764Z,80.60
2023-03-11T21:10:12.745Z,80.60
2023-03-11T21:11:12.715Z,80.71
2023-03-11T21:12:12.814Z,80.71
2023-03-11T21:13:12.815Z,80.81
2023-03-11T21:14:12.704Z,80.81
2023-03-11T21:15:12.642Z,80.29
2023-03-11T21:16:12.769Z,80.19
2023-03-11T21:17:12.774Z,79.98
2023-03-11T21:18:12.785Z,80.08
2023-03-11T21:19:12.663Z,80.19
2023-03-11T21:20:12.669Z,80.29
2023-03-11T21:21:12.669Z,80.29
2023-03-11T21:22:12.687Z,80.50
2023-03-11T21:23:12.613Z,80.40
2023-03-11T21:24:12.597Z,80.40
2023-03-11T21:25:12.614Z,80.50
2023-03-11T21:26:12.669Z,80.40
2023-03-11T21:27:12.624Z,80.40
2023-03-11T21:28:12.502Z,80.08
2023-03-11T21:29:12.536Z,79.87
2023-03-11T21:30:12.577Z,79.77